Time;durP1;ratioP1;P1;durP2;ratioP2;P2;SDS_P1;SDS_P2;PMS_P1;PMS_P2;Temp;Humidity;BMP_temperature;BMP_pressure;BME280_temperature;BME280_humidity;BME280_pressure;Samples;Min_cycle;Max_cycle;Signal;HPM_P1;HPM_P2
2022/01/26 00:07:06;;;;;;;332.92;159.02;;;3.20;99.90;;;;;;4901374;29;20049;-88
2022/01/26 00:09:32;;;;;;;332.23;158.98;;;3.20;99.90;;;;;;4927777;29;20035;-89
2022/01/26 00:11:58;;;;;;;334.88;160.05;;;3.20;99.90;;;;;;4897665;29;20055;-87
2022/01/26 00:14:24;;;;;;;337.13;161.27;;;3.20;99.90;;;;;;4909758;29;20035;-87
2022/01/26 00:16:50;;;;;;;337.98;160.77;;;3.10;99.90;;;;;;4901610;29;20098;-88
2022/01/26 00:19:24;;;;;;;336.23;160.73;;;3.10;99.90;;;;;;4918498;29;20083;-86
2022/01/26 00:21:51;;;;;;;336.08;160.65;;;3.10;99.90;;;;;;4903371;29;20103;-86
2022/01/26 00:29:21;;;;;;;336.67;160.63;;;3.10;99.90;;;;;;4919027;29;20055;-89
2022/01/26 00:33:06;;;;;;;335.33;160.10;;;3.10;99.90;;;;;;4927328;29;20047;-86
2022/01/26 00:40:34;;;;;;;331.52;158.77;;;3.10;99.90;;;;;;4916440;29;20051;-86
2022/01/26 00:43:10;;;;;;;334.55;160.30;;;3.10;99.90;;;;;;4920837;29;20589;-85
2022/01/26 00:45:37;;;;;;;330.42;158.38;;;3.00;99.90;;;;;;4912857;29;20591;-85
2022/01/26 00:48:06;;;;;;;335.67;160.77;;;3.10;99.90;;;;;;4911231;29;20393;-85
2022/01/26 00:50:33;;;;;;;338.23;161.80;;;3.00;99.90;;;;;;4914105;29;20144;-85
2022/01/26 00:52:59;;;;;;;337.08;161.25;;;3.10;99.90;;;;;;4900550;29;20059;-86
2022/01/26 00:55:25;;;;;;;333.80;159.93;;;3.10;99.90;;;;;;4910520;29;20674;-86
2022/01/26 00:57:51;;;;;;;335.67;160.48;;;3.10;99.90;;;;;;4917332;29;20067;-85
2022/01/26 01:00:23;;;;;;;335.65;161.10;;;3.10;99.90;;;;;;4916704;29;20047;-84
2022/01/26 01:02:50;;;;;;;337.52;161.73;;;3.00;99.90;;;;;;4899005;29;20044;-86
2022/01/26 01:05:23;;;;;;;336.38;160.77;;;3.10;99.90;;;;;;4906278;29;20428;-86
2022/01/26 01:07:53;;;;;;;340.42;163.68;;;3.00;99.90;;;;;;4927044;29;20100;-87
2022/01/26 01:10:23;;;;;;;338.88;162.40;;;3.00;99.90;;;;;;4927421;29;20522;-86
2022/01/26 01:12:54;;;;;;;337.00;161.93;;;3.00;99.90;;;;;;4921454;29;20120;-85
2022/01/26 01:15:20;;;;;;;338.80;162.10;;;3.00;99.90;;;;;;4917173;28;20051;-86
2022/01/26 01:17:52;;;;;;;332.77;159.73;;;3.10;99.90;;;;;;4931689;29;20063;-85
2022/01/26 01:28:23;;;;;;;333.45;159.60;;;3.00;99.90;;;;;;4930164;28;20128;-84
2022/01/26 01:30:55;;;;;;;335.25;160.82;;;3.00;99.90;;;;;;4930841;29;20484;-85
2022/01/26 01:33:27;;;;;;;332.05;158.93;;;3.00;99.90;;;;;;4920832;29;20047;-84
2022/01/26 01:35:52;;;;;;;340.73;164.20;;;3.00;99.90;;;;;;4925747;29;20131;-85
2022/01/26 01:38:20;;;;;;;336.85;162.00;;;3.00;99.90;;;;;;4924548;29;20139;-86
2022/01/26 01:40:50;;;;;;;333.95;159.90;;;3.00;99.90;;;;;;4925970;29;20530;-86
2022/01/26 01:43:17;;;;;;;335.08;161.23;;;3.00;99.90;;;;;;4934069;29;20039;-85
2022/01/26 01:45:49;;;;;;;336.48;161.70;;;3.00;99.90;;;;;;4933531;29;20054;-85
2022/01/26 01:48:18;;;;;;;337.58;161.63;;;3.00;99.90;;;;;;4950963;29;20039;-86
2022/01/26 01:50:45;;;;;;;332.20;159.18;;;2.90;99.90;;;;;;4923100;29;20037;-85
2022/01/26 01:53:14;;;;;;;335.85;161.07;;;3.00;99.90;;;;;;4927740;29;20157;-85
2022/01/26 01:55:42;;;;;;;331.75;159.18;;;2.90;99.90;;;;;;4929458;29;20039;-85
2022/01/26 01:58:09;;;;;;;328.30;157.85;;;2.90;99.90;;;;;;4932838;29;20123;-85
2022/01/26 02:00:35;;;;;;;331.92;158.93;;;2.90;99.90;;;;;;4923509;29;20044;-85
2022/01/26 02:03:01;;;;;;;331.95;159.55;;;2.90;99.90;;;;;;4926355;29;20090;-87
2022/01/26 02:05:27;;;;;;;333.75;160.40;;;2.90;99.90;;;;;;4933622;29;20075;-85
2022/01/26 02:07:53;;;;;;;334.15;160.40;;;2.90;99.90;;;;;;4921407;29;20083;-85
2022/01/26 02:10:20;;;;;;;332.33;159.52;;;2.90;99.90;;;;;;4918176;29;20119;-85
2022/01/26 02:12:52;;;;;;;332.98;159.57;;;2.90;99.90;;;;;;4928685;29;20130;-84
2022/01/26 02:15:23;;;;;;;329.52;157.68;;;2.90;99.90;;;;;;4926908;29;20445;-87
2022/01/26 02:53:57;;;;;;;331.98;159.90;;;2.90;99.90;;;;;;4920943;29;20052;-84
2022/01/26 02:59:50;;;;;;;334.38;161.05;;;2.90;99.90;;;;;;4894391;29;20086;-85
2022/01/26 03:02:10;;;;;;;335.02;161.02;;;2.90;99.90;;;;;;4918884;29;20667;-86
2022/01/26 03:04:44;;;;;;;331.63;158.98;;;2.90;99.90;;;;;;4887702;29;1096584;-86
2022/01/26 03:07:17;;;;;;;331.55;159.20;;;2.90;99.90;;;;;;4928034;29;20620;-84
2022/01/26 03:09:53;;;;;;;336.05;161.25;;;2.90;99.90;;;;;;4951403;28;20099;-84
2022/01/26 03:12:29;;;;;;;332.92;160.50;;;2.90;99.90;;;;;;4915865;29;20055;-84
2022/01/26 03:14:59;;;;;;;335.50;160.82;;;2.90;99.90;;;;;;4911372;29;20044;-86
2022/01/26 03:18:01;;;;;;;335.65;161.55;;;2.90;99.90;;;;;;4917022;29;20059;-84
2022/01/26 03:20:25;;;;;;;327.98;157.82;;;2.90;99.90;;;;;;4918603;29;20535;-85
2022/01/26 03:28:26;;;;;;;332.55;159.55;;;2.90;99.90;;;;;;4920171;29;20043;-84
2022/01/26 03:36:13;;;;;;;330.52;158.10;;;2.80;99.90;;;;;;4910643;29;20135;-85
2022/01/26 03:38:45;;;;;;;333.63;160.27;;;2.80;99.90;;;;;;4924208;29;20477;-85
2022/01/26 03:43:40;;;;;;;334.52;160.80;;;2.80;99.90;;;;;;4921972;29;20052;-84
2022/01/26 03:46:06;;;;;;;333.67;159.55;;;2.80;99.90;;;;;;4935974;29;20061;-86
2022/01/26 03:48:32;;;;;;;333.88;159.70;;;2.90;99.90;;;;;;4922362;29;20036;-85
2022/01/26 03:50:57;;;;;;;332.73;159.70;;;2.80;99.90;;;;;;4916169;29;20043;-85
2022/01/26 03:53:23;;;;;;;336.90;161.40;;;2.80;99.90;;;;;;4916811;29;20047;-85
2022/01/26 03:55:49;;;;;;;337.40;161.82;;;2.80;99.90;;;;;;4931228;29;20054;-86
2022/01/26 03:58:14;;;;;;;331.63;158.98;;;2.80;99.90;;;;;;4914502;29;20048;-86
2022/01/26 04:00:40;;;;;;;339.10;162.65;;;2.80;99.90;;;;;;4920544;29;20042;-84
2022/01/26 04:03:05;;;;;;;333.48;160.00;;;2.80;99.90;;;;;;4911982;29;20112;-86
2022/01/26 04:05:31;;;;;;;336.67;161.65;;;2.80;99.90;;;;;;4915368;29;20052;-86
2022/01/26 04:08:03;;;;;;;334.33;160.43;;;2.80;99.90;;;;;;4913900;29;20063;-86
2022/01/26 04:10:52;;;;;;;333.45;159.70;;;2.80;99.90;;;;;;4930516;29;20450;-85
2022/01/26 04:13:15;;;;;;;333.80;160.35;;;2.80;99.90;;;;;;4931143;29;20058;-86
2022/01/26 04:15:40;;;;;;;334.75;160.55;;;2.80;99.90;;;;;;4929445;29;20056;-88
2022/01/26 04:18:10;;;;;;;333.25;159.35;;;2.80;99.90;;;;;;4927380;29;20052;-88
2022/01/26 04:20:40;;;;;;;332.08;159.40;;;2.80;99.90;;;;;;4920277;29;20071;-87
2022/01/26 04:23:22;;;;;;;332.20;159.32;;;2.80;99.90;;;;;;4915446;29;20058;-85
2022/01/26 04:25:49;;;;;;;333.92;159.40;;;2.70;99.90;;;;;;4920982;29;20175;-85
2022/01/26 04:28:21;;;;;;;327.67;157.35;;;2.70;99.90;;;;;;4911396;29;20052;-85
2022/01/26 04:30:47;;;;;;;327.83;157.20;;;2.80;99.90;;;;;;4912235;29;20044;-84
2022/01/26 04:33:13;;;;;;;331.42;159.23;;;2.70;99.90;;;;;;4927615;29;20047;-85
2022/01/26 04:35:43;;;;;;;337.13;161.82;;;2.80;99.90;;;;;;4930169;29;20487;-87
2022/01/26 04:38:24;;;;;;;333.30;160.10;;;2.70;99.90;;;;;;4929646;29;20103;-87
2022/01/26 04:43:38;;;;;;;334.60;160.70;;;2.70;99.90;;;;;;4924461;29;20048;-87
2022/01/26 04:46:05;;;;;;;335.10;161.43;;;2.70;99.90;;;;;;4927268;29;20040;-88
2022/01/26 04:48:31;;;;;;;330.27;158.40;;;2.70;99.90;;;;;;4924152;29;20051;-86
2022/01/26 04:50:56;;;;;;;331.90;159.95;;;2.70;99.90;;;;;;4950049;29;20051;-86
2022/01/26 04:53:22;;;;;;;332.35;159.77;;;2.70;99.90;;;;;;4929885;28;20879;-87
2022/01/26 04:55:48;;;;;;;330.50;159.00;;;2.70;99.90;;;;;;4931325;29;20079;-88
2022/01/26 04:58:13;;;;;;;329.90;158.85;;;2.60;99.90;;;;;;4912822;29;20104;-87
2022/01/26 05:00:39;;;;;;;326.80;156.75;;;2.60;99.90;;;;;;4929967;29;20059;-88
2022/01/26 05:03:05;;;;;;;329.80;158.32;;;2.60;99.90;;;;;;4932524;29;20051;-88
2022/01/26 05:05:30;;;;;;;328.15;157.27;;;2.60;99.90;;;;;;4932505;29;20134;-87
2022/01/26 05:07:56;;;;;;;333.27;160.25;;;2.60;99.90;;;;;;4932551;29;20091;-84
2022/01/26 05:10:22;;;;;;;330.73;158.65;;;2.60;99.90;;;;;;4944440;29;20051;-86
2022/01/26 05:12:48;;;;;;;327.95;157.27;;;2.60;99.90;;;;;;4915446;29;20127;-87
2022/01/26 05:15:14;;;;;;;331.88;159.25;;;2.60;99.90;;;;;;4918693;29;20175;-87
2022/01/26 05:17:41;;;;;;;332.88;160.48;;;2.60;99.90;;;;;;4921857;29;20095;-87
2022/01/26 05:20:09;;;;;;;333.15;159.93;;;2.60;99.90;;;;;;4928252;29;20052;-86
2022/01/26 05:22:40;;;;;;;332.58;159.65;;;2.60;99.90;;;;;;4945775;29;20043;-87
2022/01/26 05:25:06;;;;;;;335.52;160.80;;;2.60;99.90;;;;;;4917465;29;20091;-88
2022/01/26 05:27:31;;;;;;;328.92;158.30;;;2.60;99.90;;;;;;4918567;29;20123;-87
2022/01/26 05:29:57;;;;;;;330.48;158.38;;;2.60;99.90;;;;;;4914085;29;20218;-86
2022/01/26 05:32:23;;;;;;;332.65;159.88;;;2.60;99.90;;;;;;4931555;29;20095;-88
2022/01/26 05:34:48;;;;;;;327.85;157.43;;;2.60;99.90;;;;;;4933402;29;20500;-87
2022/01/26 05:37:14;;;;;;;331.05;158.98;;;2.60;99.90;;;;;;4931978;29;20046;-87
2022/01/26 05:39:40;;;;;;;327.55;156.85;;;2.60;99.90;;;;;;4946946;28;20059;-87
2022/01/26 05:42:06;;;;;;;324.45;156.82;;;2.60;99.90;;;;;;4915784;29;20094;-86
2022/01/26 05:44:37;;;;;;;329.10;157.27;;;2.60;99.90;;;;;;4929287;29;20040;-87
2022/01/26 05:47:06;;;;;;;331.10;159.75;;;2.50;99.90;;;;;;4933583;29;20059;-85
2022/01/26 05:49:32;;;;;;;327.10;156.80;;;2.50;99.90;;;;;;4956391;29;20051;-85
2022/01/26 05:51:57;;;;;;;325.63;155.98;;;2.50;99.90;;;;;;4954734;29;20049;-85
2022/01/26 05:54:23;;;;;;;330.50;159.18;;;2.50;99.90;;;;;;4920708;29;20149;-85
2022/01/26 05:56:49;;;;;;;328.35;158.15;;;2.60;99.90;;;;;;4938474;29;20604;-84
2022/01/26 06:04:27;;;;;;;328.38;158.40;;;2.60;99.90;;;;;;1241115;27;20127;-85
2022/01/26 06:06:53;;;;;;;328.83;157.25;;;2.50;99.90;;;;;;4886353;29;20053;-85
2022/01/26 06:09:19;;;;;;;334.40;160.88;;;2.50;99.90;;;;;;4880016;29;20044;-86
2022/01/26 06:11:44;;;;;;;329.50;157.52;;;2.50;99.90;;;;;;4881128;29;20088;-87
2022/01/26 06:14:10;;;;;;;328.42;156.85;;;2.50;99.90;;;;;;4886275;29;20049;-86
2022/01/26 06:16:35;;;;;;;329.38;157.40;;;2.50;99.90;;;;;;4902905;29;20532;-87
2022/01/26 06:19:01;;;;;;;336.83;161.15;;;2.50;99.90;;;;;;4918278;29;20044;-86
2022/01/26 06:21:27;;;;;;;334.35;160.13;;;2.60;99.90;;;;;;4882214;29;20165;-86
2022/01/26 06:23:52;;;;;;;335.40;160.48;;;2.50;99.90;;;;;;4885033;29;20442;-86
2022/01/26 06:26:18;;;;;;;332.42;159.18;;;2.60;99.90;;;;;;4896226;29;20064;-86
2022/01/26 06:28:43;;;;;;;328.88;157.13;;;2.60;99.90;;;;;;4904941;29;20485;-87
2022/01/26 06:31:11;;;;;;;336.25;160.68;;;2.60;99.90;;;;;;4891198;29;20049;-86
2022/01/26 06:33:40;;;;;;;341.15;163.10;;;2.60;99.90;;;;;;4891977;29;20111;-87
2022/01/26 06:36:08;;;;;;;338.55;161.13;;;2.60;99.90;;;;;;4882028;29;20048;-87
2022/01/26 06:38:34;;;;;;;338.08;161.85;;;2.60;99.90;;;;;;4894751;29;20480;-86
2022/01/26 06:41:00;;;;;;;342.63;163.13;;;3.40;99.90;;;;;;4908199;29;20167;-87
2022/01/26 06:43:29;;;;;;;341.58;163.57;;;2.60;99.90;;;;;;4894848;29;20590;-87
2022/01/26 06:46:01;;;;;;;342.83;162.73;;;2.60;99.90;;;;;;4886031;29;20802;-87
2022/01/26 06:50:52;;;;;;;345.83;165.23;;;2.70;99.90;;;;;;4896943;29;20056;-85
2022/01/26 06:53:18;;;;;;;340.02;162.65;;;2.60;99.90;;;;;;4895115;29;20055;-85
2022/01/26 06:55:43;;;;;;;334.67;159.73;;;2.70;99.90;;;;;;4896901;29;20473;-84
2022/01/26 06:58:09;;;;;;;339.05;161.00;;;2.70;99.90;;;;;;4891917;29;20107;-85
2022/01/26 07:00:35;;;;;;;338.75;161.65;;;2.70;99.90;;;;;;4884072;29;20052;-85
2022/01/26 07:03:00;;;;;;;341.02;162.27;;;2.60;99.90;;;;;;4878239;29;20054;-85
2022/01/26 07:05:26;;;;;;;343.50;163.95;;;2.70;99.90;;;;;;4900539;29;20052;-85
2022/01/26 07:07:52;;;;;;;344.20;163.80;;;2.70;99.90;;;;;;4911835;29;20124;-85
2022/01/26 07:10:18;;;;;;;343.20;163.27;;;2.70;99.90;;;;;;4909147;29;20043;-85
2022/01/26 07:12:43;;;;;;;340.67;161.40;;;2.70;99.90;;;;;;4930724;29;20042;-86
2022/01/26 07:23:07;;;;;;;348.13;165.13;;;2.70;99.90;;;;;;4908424;29;20678;-85
2022/01/26 07:25:33;;;;;;;339.15;160.35;;;2.70;99.90;;;;;;4898753;29;20047;-85
2022/01/26 07:28:02;;;;;;;344.88;163.55;;;2.70;99.90;;;;;;4913093;29;20056;-84
2022/01/26 07:30:29;;;;;;;347.42;166.20;;;2.70;99.90;;;;;;4906477;29;20048;-84
2022/01/26 07:32:55;;;;;;;345.33;163.68;;;2.70;99.90;;;;;;4920957;29;20043;-84
2022/01/26 07:35:20;;;;;;;342.52;162.48;;;2.70;99.90;;;;;;4899681;29;20051;-85
2022/01/26 07:37:47;;;;;;;347.38;165.55;;;2.70;99.90;;;;;;4892671;29;20056;-86
2022/01/26 07:40:14;;;;;;;344.42;163.60;;;2.70;99.90;;;;;;4907821;29;20094;-85
2022/01/26 07:42:40;;;;;;;346.20;164.82;;;2.70;99.90;;;;;;4905618;29;20130;-86
2022/01/26 07:45:09;;;;;;;347.35;166.15;;;2.70;99.90;;;;;;4909267;29;20043;-85
2022/01/26 07:47:36;;;;;;;342.23;162.40;;;2.70;99.90;;;;;;4908261;29;20039;-85
2022/01/26 07:50:08;;;;;;;342.45;162.57;;;2.70;99.90;;;;;;4899302;29;20096;-86
2022/01/26 07:52:38;;;;;;;349.63;165.25;;;2.80;99.90;;;;;;4902382;29;20537;-86
2022/01/26 07:55:09;;;;;;;351.45;167.20;;;2.80;99.90;;;;;;4906670;29;20120;-86
2022/01/26 07:57:34;;;;;;;348.75;164.40;;;2.80;99.90;;;;;;4906356;29;20145;-84
2022/01/26 08:00:01;;;;;;;353.95;166.00;;;2.80;99.90;;;;;;4905352;29;20052;-89
2022/01/26 08:02:27;;;;;;;352.35;165.68;;;2.80;99.90;;;;;;4905687;29;20045;-85
2022/01/26 08:04:52;;;;;;;358.00;168.52;;;2.80;99.90;;;;;;4901645;29;20326;-85
2022/01/26 08:07:18;;;;;;;351.40;165.48;;;2.90;99.90;;;;;;4904394;29;20064;-87
2022/01/26 08:09:44;;;;;;;351.55;163.95;;;2.90;99.90;;;;;;4905568;29;20059;-87
2022/01/26 08:12:11;;;;;;;350.30;163.57;;;2.90;99.90;;;;;;4918911;29;20045;-87
2022/01/26 08:14:37;;;;;;;350.27;165.73;;;2.90;99.90;;;;;;4909536;29;20099;-86
2022/01/26 08:17:04;;;;;;;345.00;162.52;;;2.90;99.90;;;;;;4907469;29;20139;-91
2022/01/26 08:19:30;;;;;;;351.33;165.65;;;2.90;99.90;;;;;;4904529;29;20395;-92
2022/01/26 08:22:01;;;;;;;351.77;166.80;;;2.90;99.90;;;;;;4904182;29;20040;-89
2022/01/26 08:24:30;;;;;;;360.17;169.60;;;2.90;99.90;;;;;;4904752;29;20090;-88
2022/01/26 08:27:01;;;;;;;351.13;165.77;;;3.00;99.90;;;;;;4902977;29;20040;-90
2022/01/26 08:29:37;;;;;;;354.63;166.18;;;3.00;99.90;;;;;;4904162;29;20063;-88
2022/01/26 08:32:03;;;;;;;351.95;165.45;;;3.00;99.90;;;;;;4900155;29;20055;-92
2022/01/26 08:34:29;;;;;;;356.77;167.40;;;3.00;99.90;;;;;;4908829;29;20123;-90
2022/01/26 08:36:55;;;;;;;354.13;165.50;;;3.00;99.90;;;;;;4913498;29;20075;-89
2022/01/26 08:39:21;;;;;;;357.83;168.38;;;3.00;99.90;;;;;;4914966;29;20087;-89
2022/01/26 08:44:22;;;;;;;351.35;165.80;;;3.10;99.90;;;;;;5004741;23;20071;-90
2022/01/26 08:46:48;;;;;;;350.25;165.82;;;3.10;99.90;;;;;;4912008;29;20048;-88
2022/01/26 08:49:14;;;;;;;349.58;164.15;;;3.10;99.90;;;;;;4906361;29;20130;-87
2022/01/26 08:51:43;;;;;;;347.00;164.15;;;3.20;99.90;;;;;;4906032;29;20044;-90
2022/01/26 09:46:05;;;;;;;352.60;166.52;;;3.40;99.90;;;;;;4932904;29;20043;-88
2022/01/26 09:48:33;;;;;;;351.40;165.68;;;3.40;99.90;;;;;;4922528;29;20429;-84
2022/01/26 09:50:59;;;;;;;354.70;166.80;;;3.40;99.90;;;;;;4922890;29;20044;-85
2022/01/26 09:58:36;;;;;;;353.73;166.95;;;3.50;99.90;;;;;;5274900;23;20053;-87
2022/01/26 10:49:19;;;;;;;348.23;162.90;;;3.90;99.90;;;;;;4921184;29;20047;-87
2022/01/26 10:54:39;;;;;;;350.88;164.13;;;3.90;99.90;;;;;;4938760;29;20131;-86
2022/01/26 10:57:08;;;;;;;348.33;163.32;;;3.90;99.90;;;;;;4939047;29;20054;-87
2022/01/26 10:59:42;;;;;;;351.17;165.15;;;3.90;99.90;;;;;;4935557;29;20095;-87
2022/01/26 11:02:10;;;;;;;350.83;164.20;;;4.00;99.90;;;;;;4916811;29;20115;-86
2022/01/26 11:04:38;;;;;;;350.05;163.38;;;4.00;99.90;;;;;;4925192;29;20059;-85
2022/01/26 11:07:08;;;;;;;351.58;164.13;;;4.00;99.90;;;;;;4938193;29;20075;-88
2022/01/26 11:09:38;;;;;;;350.63;164.27;;;4.00;99.90;;;;;;4919273;29;20051;-86
2022/01/26 11:12:12;;;;;;;352.83;166.05;;;4.00;99.90;;;;;;4939287;29;20364;-87
2022/01/26 11:15:07;;;;;;;345.90;161.82;;;4.00;99.90;;;;;;4938825;29;20058;-88
2022/01/26 11:17:36;;;;;;;347.92;163.63;;;4.00;99.90;;;;;;4937153;29;20071;-86
2022/01/26 11:20:17;;;;;;;350.23;164.20;;;4.00;99.90;;;;;;4928129;29;20453;-86
2022/01/26 11:22:51;;;;;;;346.42;163.77;;;4.00;99.90;;;;;;4922734;29;20484;-89
2022/01/26 11:25:17;;;;;;;346.05;162.38;;;4.00;99.90;;;;;;4925823;29;20051;-89
2022/01/26 11:27:43;;;;;;;347.73;163.80;;;4.00;99.90;;;;;;4922141;29;20048;-92
2022/01/26 11:30:25;;;;;;;347.73;163.77;;;4.00;99.90;;;;;;4928412;29;20056;-91
2022/01/26 11:33:18;;;;;;;349.15;164.93;;;4.00;99.90;;;;;;4939592;29;20542;-89
2022/01/26 11:35:47;;;;;;;348.23;164.23;;;4.00;99.90;;;;;;4926362;29;20115;-86
2022/01/26 11:47:18;;;;;;;340.50;159.85;;;4.10;99.90;;;;;;4946909;29;20118;-86
2022/01/26 11:49:44;;;;;;;346.38;163.00;;;4.10;99.90;;;;;;4928509;29;20060;-91
2022/01/26 11:52:29;;;;;;;346.15;161.88;;;4.10;99.90;;;;;;4920057;29;20114;-88
2022/01/26 11:54:58;;;;;;;347.55;164.25;;;4.10;99.90;;;;;;4927081;29;20071;-89
2022/01/26 11:57:47;;;;;;;346.70;163.13;;;4.10;99.90;;;;;;4932458;29;20118;-89
2022/01/26 12:00:19;;;;;;;347.10;162.70;;;4.20;99.90;;;;;;4932652;29;20057;-87
2022/01/26 12:05:14;;;;;;;347.95;162.85;;;4.10;99.90;;;;;;4950333;29;20504;-89
2022/01/26 12:07:53;;;;;;;352.45;165.73;;;4.20;99.90;;;;;;4914095;29;20151;-88
2022/01/26 12:10:29;;;;;;;350.52;164.25;;;4.20;99.90;;;;;;4939954;29;20044;-89
2022/01/26 12:13:21;;;;;;;353.10;165.93;;;4.20;99.90;;;;;;4955197;28;20511;-90
2022/01/26 13:26:06;;;;;;;339.77;159.50;;;4.60;99.90;;;;;;4935695;29;20043;-89
2022/01/26 13:34:15;;;;;;;343.42;161.13;;;4.70;99.90;;;;;;4937260;29;20059;-87
2022/01/26 13:37:07;;;;;;;344.23;160.73;;;4.60;99.90;;;;;;4930557;29;20072;-86
2022/01/26 13:39:55;;;;;;;342.23;161.77;;;4.70;99.90;;;;;;4939174;29;20384;-87
2022/01/26 13:48:04;;;;;;;;;;;4.70;99.90;;;;;;4950484;29;20127;-87
2022/01/26 13:53:14;;;;;;;345.75;161.48;;;4.70;99.90;;;;;;4938471;29;20155;-89
2022/01/26 13:56:00;;;;;;;340.40;160.05;;;4.70;99.90;;;;;;4951415;29;20370;-87
2022/01/26 14:01:19;;;;;;;341.52;160.80;;;4.80;99.90;;;;;;4938777;29;20139;-87
2022/01/26 14:24:32;;;;;;;342.02;161.45;;;4.90;99.90;;;;;;4934313;29;20048;-88
2022/01/26 14:27:01;;;;;;;347.50;162.40;;;4.90;99.90;;;;;;4918052;29;20445;-87
2022/01/26 14:29:36;;;;;;;347.63;163.27;;;4.90;99.90;;;;;;4915881;29;20067;-86
2022/01/26 14:32:20;;;;;;;345.08;162.80;;;4.90;99.90;;;;;;4915915;29;20059;-93
2022/01/26 14:54:09;;;;;;;343.20;162.27;;;5.00;99.90;;;;;;4916232;29;20139;-87
2022/01/26 15:41:27;;;;;;;337.08;160.82;;;5.10;99.90;;;;;;4902291;29;20044;-87
2022/01/26 15:49:51;;;;;;;340.48;162.07;;;5.20;99.90;;;;;;4915127;29;20048;-89
2022/01/26 16:05:55;;;;;;;344.35;161.98;;;5.20;99.90;;;;;;4917755;29;20058;-91
2022/01/26 16:08:33;;;;;;;346.58;162.13;;;5.30;99.90;;;;;;4928530;29;20130;-91
2022/01/26 16:17:08;;;;;;;344.55;162.48;;;5.30;99.90;;;;;;4907273;29;20052;-92
2022/01/26 16:37:57;;;;;;;348.02;163.48;;;5.30;99.90;;;;;;4910001;29;20139;-86
2022/01/26 17:55:08;;;;;;;342.70;159.68;;;5.50;99.90;;;;;;4913542;29;20505;-81
2022/01/26 18:05:07;;;;;;;341.55;160.02;;;5.60;99.90;;;;;;4912912;29;20399;-83
2022/01/26 18:22:20;;;;;;;350.77;163.60;;;5.60;99.90;;;;;;4907680;29;20044;-84
2022/01/26 18:31:43;;;;;;;341.67;158.75;;;5.60;99.90;;;;;;4911438;29;20052;-83
2022/01/26 21:43:55;;;;;;;356.48;166.55;;;6.30;99.90;;;;;;5141271;23;20090;-86
2022/01/26 21:46:20;;;;;;;356.40;167.57;;;6.30;99.90;;;;;;4924856;29;20595;-88
2022/01/26 21:48:46;;;;;;;360.88;169.20;;;6.30;99.90;;;;;;4935836;29;20511;-84
2022/01/26 21:51:14;;;;;;;357.27;167.50;;;6.30;99.90;;;;;;4935821;29;20126;-86
2022/01/26 21:53:40;;;;;;;359.48;168.25;;;6.30;99.90;;;;;;4935118;29;20055;-86
2022/01/26 21:56:05;;;;;;;350.60;164.00;;;6.50;99.90;;;;;;4936511;29;20048;-87
2022/01/26 21:58:31;;;;;;;349.52;163.95;;;6.30;99.90;;;;;;4937161;29;20075;-90
2022/01/26 22:00:57;;;;;;;359.85;168.80;;;6.30;99.90;;;;;;4926231;29;20577;-88
2022/01/26 22:03:23;;;;;;;350.27;163.88;;;6.90;99.90;;;;;;4938620;29;20326;-90
2022/01/26 22:05:58;;;;;;;356.75;167.82;;;6.20;99.90;;;;;;4938491;29;20047;-85
2022/01/26 22:08:24;;;;;;;353.35;166.38;;;5.10;99.90;;;;;;4927451;29;20130;-87
2022/01/26 22:10:50;;;;;;;353.77;165.75;;;6.20;99.90;;;;;;4952745;29;20047;-89
2022/01/26 22:13:24;;;;;;;357.73;167.88;;;6.20;99.90;;;;;;4938063;29;20048;-85
2022/01/26 22:15:50;;;;;;;356.73;167.35;;;6.20;99.90;;;;;;4935950;29;20387;-86
2022/01/26 22:18:16;;;;;;;355.95;166.75;;;6.30;99.90;;;;;;4952280;29;20039;-86
2022/01/26 22:20:42;;;;;;;348.60;163.70;;;6.20;99.90;;;;;;4929281;29;20075;-88
2022/01/26 22:23:16;;;;;;;354.13;165.57;;;8.30;99.90;;;;;;4952265;29;20040;-87
2022/01/26 22:25:52;;;;;;;352.50;164.60;;;6.20;99.90;;;;;;4927066;29;20523;-86
2022/01/26 22:28:20;;;;;;;347.33;163.10;;;6.70;99.90;;;;;;4935014;29;20113;-87
2022/01/26 22:30:46;;;;;;;347.58;163.18;;;7.10;99.90;;;;;;4935776;29;20046;-87
2022/01/26 22:33:12;;;;;;;349.80;163.48;;;6.30;99.90;;;;;;4935595;29;20464;-87
2022/01/26 22:35:44;;;;;;;355.33;166.52;;;6.20;99.90;;;;;;4933452;29;20121;-92
2022/01/26 22:38:09;;;;;;;356.52;166.93;;;6.50;99.90;;;;;;4942786;29;20116;-87
2022/01/26 22:48:06;;;;;;;354.50;166.35;;;5.30;99.90;;;;;;4951866;29;20120;-86
2022/01/26 22:54:24;;;;;;;350.45;165.27;;;6.20;99.90;;;;;;4866876;29;20048;-88
2022/01/26 23:08:04;;;;;;;356.00;168.13;;;6.20;99.90;;;;;;4860260;29;20048;-86
2022/01/26 23:10:30;;;;;;;356.35;169.05;;;6.10;99.90;;;;;;4864292;29;20143;-87
2022/01/26 23:12:55;;;;;;;347.95;163.98;;;6.20;99.90;;;;;;4926464;29;20039;-83
2022/01/26 23:15:21;;;;;;;349.15;162.98;;;6.10;99.90;;;;;;4931101;29;20380;-90
2022/01/26 23:17:47;;;;;;;352.13;165.60;;;6.10;99.90;;;;;;4932598;29;20075;-88
2022/01/26 23:20:13;;;;;;;353.63;166.07;;;6.10;99.90;;;;;;4934973;29;20047;-84
2022/01/26 23:22:40;;;;;;;360.85;169.20;;;6.10;99.90;;;;;;4934429;29;20284;-87
2022/01/26 23:35:39;;;;;;;354.75;165.90;;;6.10;99.90;;;;;;4920274;29;20082;-85
2022/01/26 23:38:22;;;;;;;363.05;170.45;;;6.10;99.90;;;;;;4934116;29;20114;-87
